createdAt,value
2022-12-05T00:00:45.649Z,482.86
2022-12-05T00:01:40.936Z,486.39
2022-12-05T00:02:37.221Z,487.45
2022-12-05T00:03:32.415Z,492.49
2022-12-05T00:04:28.265Z,493.58
2022-12-05T00:05:23.328Z,496.89
2022-12-05T00:06:18.497Z,502.13
2022-12-05T00:07:14.409Z,502.13
2022-12-05T00:08:09.661Z,505.56
2022-12-05T00:09:05.505Z,505.18
2022-12-05T00:10:00.703Z,508.26
2022-12-05T00:10:55.764Z,514.93
2022-12-05T00:11:50.937Z,518.53
2022-12-05T00:12:46.233Z,516.53
2022-12-05T00:13:41.235Z,515.73
2022-12-05T00:14:36.310Z,517.73
2022-12-05T00:15:31.333Z,520.96
2022-12-05T00:16:26.744Z,523.01
2022-12-05T00:17:21.690Z,514.14
2022-12-05T00:18:17.823Z,519.34
2022-12-05T00:19:12.860Z,524.65
2022-12-05T00:20:07.938Z,523.83
2022-12-05T00:21:02.946Z,523.83
2022-12-05T00:21:58.054Z,528.39
2022-12-05T00:22:53.062Z,532.19
2022-12-05T00:23:49.389Z,525.89
2022-12-05T00:24:44.532Z,527.98
2022-12-05T00:25:39.716Z,531.77
2022-12-05T00:26:39.086Z,525.07
2022-12-05T00:27:34.154Z,539.51
2022-12-05T00:28:29.351Z,539.51
2022-12-05T00:29:24.519Z,539.51
2022-12-05T00:30:19.665Z,544.80
2022-12-05T00:31:15.131Z,539.95
2022-12-05T00:32:10.842Z,543.02
2022-12-05T00:33:06.092Z,544.80
2022-12-05T00:34:01.282Z,542.58
2022-12-05T00:34:56.460Z,540.38
2022-12-05T00:35:51.612Z,540.82
2022-12-05T00:36:46.673Z,540.82
2022-12-05T00:37:41.691Z,536.04
2022-12-05T00:38:36.750Z,533.47
2022-12-05T00:39:31.751Z,532.61
2022-12-05T00:40:26.790Z,528.81
2022-12-05T00:41:21.850Z,528.81
2022-12-05T00:42:17.144Z,527.56
2022-12-05T00:43:12.300Z,530.50
2022-12-05T00:44:07.342Z,533.47
2022-12-05T00:45:02.383Z,528.39
2022-12-05T00:45:57.555Z,533.04
2022-12-05T00:46:52.446Z,535.18
2022-12-05T00:47:47.460Z,533.47
2022-12-05T00:48:42.508Z,536.04
2022-12-05T00:49:37.526Z,533.89
2022-12-05T00:50:32.544Z,536.90
2022-12-05T00:51:27.601Z,534.32
2022-12-05T00:52:22.644Z,533.89
2022-12-05T00:53:17.667Z,532.19
2022-12-05T00:54:12.668Z,531.77
2022-12-05T00:55:08.432Z,533.89
2022-12-05T00:56:03.593Z,537.77
2022-12-05T00:56:58.913Z,536.04
2022-12-05T00:57:55.185Z,535.18
2022-12-05T00:58:50.389Z,541.26
2022-12-05T00:59:46.128Z,547.48
2022-12-05T01:00:41.389Z,551.56
2022-12-05T01:01:36.596Z,554.31
2022-12-05T01:02:32.405Z,552.93
2022-12-05T01:03:27.633Z,552.47
2022-12-05T01:04:23.415Z,552.93
2022-12-05T01:05:18.538Z,557.55
2022-12-05T01:06:14.123Z,555.69
2022-12-05T01:07:09.807Z,555.69
2022-12-05T01:08:05.054Z,558.49
2022-12-05T01:09:00.136Z,560.36
2022-12-05T01:09:56.936Z,559.42
2022-12-05T01:10:51.897Z,553.85
2022-12-05T01:11:47.755Z,552.93
2022-12-05T01:12:42.894Z,553.85
2022-12-05T01:13:38.112Z,553.85
2022-12-05T01:14:33.851Z,555.69
2022-12-05T01:15:29.057Z,559.42
2022-12-05T01:16:25.067Z,558.02
2022-12-05T01:17:20.255Z,559.42
2022-12-05T01:18:15.585Z,566.55
2022-12-05T01:19:11.807Z,564.16
2022-12-05T01:20:06.721Z,562.25
2022-12-05T01:21:01.898Z,560.36
2022-12-05T01:21:58.283Z,564.16
2022-12-05T01:22:53.573Z,564.16
2022-12-05T01:23:49.310Z,571.90
2022-12-05T01:24:44.508Z,572.88
2022-12-05T01:25:39.691Z,574.86
2022-12-05T01:26:35.597Z,574.36
2022-12-05T01:27:30.774Z,574.86
2022-12-05T01:28:26.690Z,562.25
2022-12-05T01:29:21.814Z,566.55
2022-12-05T01:30:16.937Z,568.48
2022-12-05T01:31:12.678Z,572.88
2022-12-05T01:32:08.020Z,572.39
2022-12-05T01:33:03.344Z,573.87
2022-12-05T01:33:59.634Z,574.36
2022-12-05T01:34:54.878Z,574.86
2022-12-05T01:35:50.642Z,577.34
2022-12-05T01:36:45.772Z,578.35
2022-12-05T01:37:41.205Z,574.86
2022-12-05T01:38:36.857Z,577.84
2022-12-05T01:39:32.036Z,577.84
2022-12-05T01:40:27.771Z,577.34
2022-12-05T01:41:22.938Z,579.85
2022-12-05T01:42:21.872Z,583.92
2022-12-05T01:43:14.916Z,583.92
2022-12-05T01:44:09.143Z,589.08
2022-12-05T01:45:04.344Z,594.86
2022-12-05T01:46:00.752Z,590.12
2022-12-05T01:46:56.035Z,591.69
2022-12-05T01:47:51.761Z,593.80
2022-12-05T01:48:46.910Z,595.39
2022-12-05T01:49:42.234Z,596.99
2022-12-05T01:50:37.947Z,597.52
2022-12-05T01:51:33.126Z,599.67
2022-12-05T01:52:28.404Z,601.29
2022-12-05T01:53:23.543Z,603.47
2022-12-05T01:54:18.768Z,604.02
2022-12-05T01:55:13.768Z,596.45
2022-12-05T01:56:08.803Z,602.92
2022-12-05T01:57:03.823Z,602.92
2022-12-05T01:57:58.865Z,605.66
2022-12-05T01:58:53.954Z,604.02
2022-12-05T01:59:49.030Z,597.52
2022-12-05T02:00:44.085Z,595.39
2022-12-05T02:01:39.202Z,598.06
2022-12-05T02:02:34.187Z,599.67
2022-12-05T02:03:29.252Z,601.84
2022-12-05T02:04:24.259Z,596.45
2022-12-05T02:05:19.413Z,607.32
2022-12-05T02:06:14.466Z,601.84
2022-12-05T02:07:09.604Z,604.02
2022-12-05T02:08:04.667Z,599.67
2022-12-05T02:08:59.708Z,603.47
2022-12-05T02:09:55.143Z,611.77
2022-12-05T02:10:50.185Z,611.21
2022-12-05T02:11:45.336Z,611.77
2022-12-05T02:12:40.654Z,615.16
2022-12-05T02:13:35.666Z,615.73
2022-12-05T02:14:30.974Z,616.87
2022-12-05T02:15:26.167Z,617.44
2022-12-05T02:16:21.498Z,619.73
2022-12-05T02:17:17.347Z,618.58
2022-12-05T02:18:12.635Z,618.01
2022-12-05T02:19:08.078Z,616.30
2022-12-05T02:20:03.114Z,558.96
2022-12-05T02:20:58.103Z,534.32
2022-12-05T02:21:53.267Z,539.07
2022-12-05T02:22:48.431Z,552.01
2022-12-05T02:23:43.582Z,558.49
2022-12-05T02:24:38.800Z,565.59
2022-12-05T02:25:37.612Z,562.25
2022-12-05T02:26:32.768Z,569.94
2022-12-05T02:27:27.938Z,575.85
2022-12-05T02:28:23.077Z,579.85
2022-12-05T02:29:18.379Z,579.85
2022-12-05T02:30:13.583Z,579.35
2022-12-05T02:31:08.800Z,580.36
2022-12-05T02:32:03.929Z,579.85
2022-12-05T02:32:59.125Z,579.85
2022-12-05T02:33:54.847Z,574.86
2022-12-05T02:34:50.068Z,576.84
2022-12-05T02:35:45.775Z,568.00
2022-12-05T02:36:41.053Z,567.03
2022-12-05T02:37:36.245Z,561.31
2022-12-05T02:38:32.088Z,558.49
2022-12-05T02:39:27.292Z,556.16
2022-12-05T02:40:22.453Z,556.62
2022-12-05T02:41:18.736Z,557.09
2022-12-05T02:42:13.924Z,556.62
2022-12-05T02:43:09.639Z,554.77
2022-12-05T02:44:04.819Z,555.69
2022-12-05T02:44:59.988Z,557.55
2022-12-05T02:45:55.962Z,554.31
2022-12-05T02:46:51.179Z,556.62
2022-12-05T02:47:47.051Z,560.84
2022-12-05T02:48:42.099Z,560.36
2022-12-05T02:49:37.616Z,559.89
2022-12-05T02:50:33.081Z,561.31
2022-12-05T02:51:28.394Z,566.55
2022-12-05T02:52:23.666Z,566.55
2022-12-05T02:53:20.079Z,570.92
2022-12-05T02:54:15.266Z,571.90
2022-12-05T02:55:11.027Z,572.88
2022-12-05T02:56:06.152Z,572.39
2022-12-05T02:57:01.609Z,575.85
2022-12-05T02:57:57.204Z,579.85
2022-12-05T02:58:52.573Z,572.39
2022-12-05T02:59:48.310Z,571.41
2022-12-05T03:00:43.611Z,568.97
2022-12-05T03:01:38.965Z,562.73
2022-12-05T03:02:34.591Z,568.48
2022-12-05T03:03:29.743Z,567.03
2022-12-05T03:04:25.007Z,572.88
2022-12-05T03:05:21.361Z,572.88
2022-12-05T03:06:16.729Z,575.85
2022-12-05T03:07:12.447Z,569.94
2022-12-05T03:08:07.795Z,570.43
2022-12-05T03:09:02.851Z,569.94
2022-12-05T03:09:58.977Z,571.90
2022-12-05T03:10:53.975Z,567.03
2022-12-05T03:11:49.867Z,568.48
2022-12-05T03:12:45.026Z,573.87
2022-12-05T03:13:40.367Z,551.56
2022-12-05T03:14:36.088Z,551.10
2022-12-05T03:15:31.349Z,542.58
2022-12-05T03:16:26.602Z,541.26
2022-12-05T03:17:22.928Z,543.02
2022-12-05T03:18:18.183Z,542.58
2022-12-05T03:19:13.923Z,542.58
2022-12-05T03:20:09.083Z,547.48
2022-12-05T03:21:04.266Z,550.19
2022-12-05T03:22:00.028Z,549.29
2022-12-05T03:22:55.207Z,554.31
2022-12-05T03:23:51.050Z,559.42
2022-12-05T03:24:46.094Z,565.59
2022-12-05T03:25:41.344Z,564.63
2022-12-05T03:26:37.225Z,571.41
2022-12-05T03:27:32.382Z,572.88
2022-12-05T03:28:27.692Z,578.35
2022-12-05T03:29:23.955Z,578.85
2022-12-05T03:30:19.259Z,578.85
2022-12-05T03:31:15.248Z,575.35
2022-12-05T03:32:10.388Z,583.41
2022-12-05T03:33:05.806Z,586.48
2022-12-05T03:34:00.989Z,583.92
2022-12-05T03:34:56.135Z,585.97
2022-12-05T03:35:52.573Z,589.60
2022-12-05T03:36:47.761Z,595.39
2022-12-05T03:37:43.624Z,592.74
2022-12-05T03:38:38.781Z,594.86
2022-12-05T03:39:33.952Z,595.92
2022-12-05T03:40:29.840Z,601.29
2022-12-05T03:41:25.013Z,598.06
2022-12-05T03:42:20.865Z,599.67
2022-12-05T03:43:15.880Z,608.42
2022-12-05T03:44:11.345Z,601.84
2022-12-05T03:45:07.101Z,602.38
2022-12-05T03:46:02.360Z,612.90
2022-12-05T03:46:57.630Z,611.21
2022-12-05T03:47:54.056Z,605.66
2022-12-05T03:48:49.240Z,605.11
2022-12-05T03:49:45.006Z,596.99
2022-12-05T03:50:40.152Z,595.92
2022-12-05T03:51:35.567Z,590.12
2022-12-05T03:52:30.596Z,581.37
2022-12-05T03:53:25.941Z,587.00
2022-12-05T03:54:21.180Z,581.88
2022-12-05T03:55:16.320Z,575.85
2022-12-05T03:56:11.746Z,568.00
2022-12-05T03:57:07.636Z,565.11
2022-12-05T03:58:02.819Z,566.07
2022-12-05T03:58:58.025Z,568.97
2022-12-05T03:59:53.177Z,565.59
2022-12-05T04:00:48.226Z,561.78
2022-12-05T04:01:43.408Z,566.07
2022-12-05T04:02:38.402Z,565.11
2022-12-05T04:03:33.483Z,552.01
2022-12-05T04:04:28.579Z,544.80
2022-12-05T04:05:23.737Z,545.24
2022-12-05T04:06:18.994Z,551.10
2022-12-05T04:07:14.150Z,551.56
2022-12-05T04:08:09.294Z,541.70
2022-12-05T04:09:04.275Z,541.26
2022-12-05T04:09:59.787Z,543.91
2022-12-05T04:10:54.389Z,551.56
2022-12-05T04:11:49.606Z,542.14
2022-12-05T04:12:44.792Z,545.69
2022-12-05T04:13:39.982Z,543.91
2022-12-05T04:14:35.126Z,547.93
2022-12-05T04:15:30.224Z,551.56
2022-12-05T04:16:25.289Z,544.80
2022-12-05T04:17:20.239Z,544.80
2022-12-05T04:18:15.258Z,552.01
2022-12-05T04:19:10.338Z,558.96
2022-12-05T04:20:05.339Z,552.93
2022-12-05T04:21:00.383Z,555.69
2022-12-05T04:21:55.442Z,559.42
2022-12-05T04:22:50.499Z,563.20
2022-12-05T04:23:47.841Z,562.73
2022-12-05T04:24:41.072Z,563.68
2022-12-05T04:25:36.251Z,559.42
2022-12-05T04:26:32.674Z,557.55
2022-12-05T04:27:27.879Z,556.62
2022-12-05T04:28:23.620Z,554.31
2022-12-05T04:29:18.801Z,557.09
2022-12-05T04:30:14.059Z,552.47
2022-12-05T04:31:09.880Z,543.47
2022-12-05T04:32:05.120Z,547.93
2022-12-05T04:33:00.877Z,546.59
2022-12-05T04:33:56.059Z,547.48
2022-12-05T04:34:51.387Z,542.14
2022-12-05T04:35:47.193Z,539.95
2022-12-05T04:36:42.370Z,535.61
2022-12-05T04:37:37.538Z,505.94
2022-12-05T04:38:33.956Z,337.34
2022-12-05T04:39:29.155Z,338.04
2022-12-05T04:40:24.926Z,390.65
2022-12-05T04:41:20.113Z,422.31
2022-12-05T04:42:15.296Z,443.67
2022-12-05T04:43:11.062Z,463.08
2022-12-05T04:44:06.229Z,479.05
2022-12-05T04:45:02.316Z,494.32
2022-12-05T04:45:57.419Z,505.56
2022-12-05T04:46:52.642Z,518.94
2022-12-05T04:47:48.410Z,522.19
2022-12-05T04:48:43.732Z,524.65
2022-12-05T04:49:39.002Z,530.92
2022-12-05T04:50:35.492Z,529.23
2022-12-05T04:51:30.644Z,529.23
2022-12-05T04:52:26.562Z,522.60
2022-12-05T04:53:21.711Z,515.73
2022-12-05T04:54:17.188Z,432.17
2022-12-05T04:55:12.833Z,439.28
2022-12-05T04:56:08.022Z,466.32
2022-12-05T04:57:03.777Z,487.81
2022-12-05T04:57:58.964Z,504.79
2022-12-05T04:58:54.286Z,516.12
2022-12-05T04:59:49.945Z,515.73
2022-12-05T05:00:45.162Z,524.65
2022-12-05T05:01:40.413Z,532.19
2022-12-05T05:02:36.864Z,535.61
2022-12-05T05:03:32.235Z,540.82
2022-12-05T05:04:27.850Z,540.82
2022-12-05T05:05:23.181Z,542.58
2022-12-05T05:06:18.367Z,540.82
2022-12-05T05:07:14.143Z,545.69
2022-12-05T05:08:09.359Z,544.80
2022-12-05T05:09:04.596Z,548.38
2022-12-05T05:10:01.111Z,534.75
2022-12-05T05:10:56.387Z,508.64
2022-12-05T05:11:51.430Z,480.43
2022-12-05T05:12:47.896Z,458.30
2022-12-05T05:13:43.083Z,456.73
2022-12-05T05:14:38.818Z,465.02
2022-12-05T05:15:34.013Z,475.97
2022-12-05T05:16:29.275Z,482.51
2022-12-05T05:17:25.151Z,489.24
2022-12-05T05:18:20.368Z,502.13
2022-12-05T05:19:16.251Z,502.89
2022-12-05T05:20:14.343Z,495.05
2022-12-05T05:21:06.717Z,377.73
2022-12-05T05:22:02.592Z,402.92
2022-12-05T05:22:57.625Z,430.21
2022-12-05T05:23:53.077Z,419.66
2022-12-05T05:24:48.106Z,430.77
2022-12-05T05:25:43.432Z,441.32
2022-12-05T05:26:38.491Z,460.20
2022-12-05T05:27:33.506Z,479.39
2022-12-05T05:28:28.536Z,498.75
2022-12-05T05:29:23.660Z,494.32
2022-12-05T05:30:18.703Z,485.32
2022-12-05T05:31:13.847Z,489.96
2022-12-05T05:32:08.813Z,489.60
2022-12-05T05:33:03.860Z,491.40
2022-12-05T05:33:58.851Z,499.50
2022-12-05T05:34:53.898Z,500.62
2022-12-05T05:35:48.972Z,497.64
2022-12-05T05:36:44.020Z,503.27
2022-12-05T05:37:39.196Z,505.56
2022-12-05T05:38:34.276Z,513.74
2022-12-05T05:39:29.312Z,500.25
2022-12-05T05:40:24.386Z,507.10
2022-12-05T05:41:19.387Z,505.56
2022-12-05T05:42:14.446Z,514.14
2022-12-05T05:43:09.511Z,509.81
2022-12-05T05:44:04.539Z,513.34
2022-12-05T05:44:59.604Z,520.15
2022-12-05T05:45:54.646Z,495.05
2022-12-05T05:46:49.739Z,502.89
2022-12-05T05:47:44.784Z,505.56
2022-12-05T05:48:39.815Z,510.20
2022-12-05T05:49:34.992Z,501.76
2022-12-05T05:50:30.014Z,502.13
2022-12-05T05:51:25.052Z,502.51
2022-12-05T05:52:20.119Z,495.42
2022-12-05T05:53:15.169Z,496.16
2022-12-05T05:54:10.222Z,434.42
2022-12-05T05:55:05.291Z,434.99
2022-12-05T05:56:00.298Z,458.93
2022-12-05T05:56:55.381Z,473.94
2022-12-05T05:57:50.437Z,472.93
2022-12-05T05:58:45.517Z,472.60
2022-12-05T05:59:40.597Z,476.99
2022-12-05T06:00:35.785Z,484.62
2022-12-05T06:01:30.858Z,467.30
2022-12-05T06:02:25.993Z,479.39
2022-12-05T06:03:20.998Z,471.59
2022-12-05T06:04:16.062Z,475.29
2022-12-05T06:05:10.990Z,468.94
2022-12-05T06:06:06.077Z,446.94
2022-12-05T06:07:01.120Z,441.90
2022-12-05T06:07:58.292Z,454.25
2022-12-05T06:08:53.236Z,467.95
2022-12-05T06:09:48.274Z,462.76
2022-12-05T06:10:43.322Z,469.93
2022-12-05T06:11:38.384Z,473.27
2022-12-05T06:12:33.437Z,476.65
2022-12-05T06:13:28.510Z,474.61
2022-12-05T06:14:23.542Z,469.60
2022-12-05T06:15:18.647Z,454.56
2022-12-05T06:16:13.731Z,409.85
2022-12-05T06:17:08.815Z,422.31
2022-12-05T06:18:04.529Z,433.57
2022-12-05T06:18:59.709Z,434.42
2022-12-05T06:19:55.069Z,431.05
2022-12-05T06:20:50.199Z,414.44
2022-12-05T06:21:45.583Z,406.11
2022-12-05T06:22:40.765Z,416.25
2022-12-05T06:23:35.942Z,424.46
2022-12-05T06:24:31.159Z,422.85
2022-12-05T06:25:26.337Z,434.70
2022-12-05T06:26:21.526Z,435.84
2022-12-05T06:27:16.874Z,436.41
2022-12-05T06:28:11.969Z,447.54
2022-12-05T06:29:07.148Z,438.13
2022-12-05T06:30:02.370Z,424.46
2022-12-05T06:30:57.421Z,430.21
2022-12-05T06:31:52.515Z,398.58
2022-12-05T06:32:47.601Z,389.28
2022-12-05T06:33:42.765Z,386.79
2022-12-05T06:34:37.943Z,391.33
2022-12-05T06:35:32.970Z,294.63
2022-12-05T06:36:28.048Z,138.14
2022-12-05T06:37:23.237Z,100.04
2022-12-05T06:38:18.234Z,94.17
2022-12-05T06:39:13.270Z,99.69
2022-12-05T06:40:08.258Z,103.07
2022-12-05T06:41:03.369Z,105.22
2022-12-05T06:41:58.456Z,111.70
2022-12-05T06:42:53.619Z,111.03
2022-12-05T06:43:48.614Z,115.48
2022-12-05T06:44:43.615Z,119.88
2022-12-05T06:45:38.705Z,129.16
2022-12-05T06:46:33.805Z,138.95
2022-12-05T06:47:28.746Z,151.71
2022-12-05T06:48:23.861Z,156.10
2022-12-05T06:49:18.951Z,169.76
2022-12-05T06:50:14.022Z,185.83
2022-12-05T06:51:12.498Z,198.30
2022-12-05T06:52:07.638Z,214.08
2022-12-05T06:53:02.632Z,226.65
2022-12-05T06:53:57.801Z,237.65
2022-12-05T06:54:52.817Z,246.58
2022-12-05T06:55:47.924Z,258.43
2022-12-05T06:56:42.899Z,269.02
2022-12-05T06:57:37.965Z,270.35
2022-12-05T06:58:33.061Z,282.21
2022-12-05T06:59:28.142Z,295.96
2022-12-05T07:00:23.160Z,306.18
2022-12-05T07:01:18.329Z,317.13
2022-12-05T07:02:13.785Z,317.13
2022-12-05T07:03:09.047Z,313.49
2022-12-05T07:04:04.458Z,324.02
2022-12-05T07:05:00.445Z,338.04
2022-12-05T07:05:55.640Z,337.69
2022-12-05T07:06:51.504Z,345.88
2022-12-05T07:07:46.895Z,340.49
2022-12-05T07:08:42.313Z,341.91
2022-12-05T07:09:37.984Z,349.93
2022-12-05T07:10:33.349Z,352.19
2022-12-05T07:11:28.689Z,354.85
2022-12-05T07:12:25.109Z,357.95
2022-12-05T07:13:20.401Z,365.12
2022-12-05T07:14:38.830Z,370.48
2022-12-05T07:15:12.556Z,380.39
2022-12-05T07:16:07.187Z,332.89
2022-12-05T07:17:03.813Z,289.43
2022-12-05T07:17:58.992Z,304.47
2022-12-05T07:18:54.932Z,332.55
2022-12-05T07:19:50.324Z,346.97
2022-12-05T07:21:10.827Z,358.34
2022-12-05T07:21:42.480Z,372.16
2022-12-05T07:22:36.914Z,380.18
2022-12-05T07:23:32.410Z,368.40
2022-12-05T07:24:28.582Z,371.74
2022-12-05T07:25:23.971Z,384.56
2022-12-05T07:26:19.776Z,393.88
2022-12-05T07:27:15.234Z,396.22
2022-12-05T07:28:10.553Z,381.48
2022-12-05T07:29:06.367Z,379.75
2022-12-05T07:30:02.048Z,372.58
2022-12-05T07:30:57.495Z,367.99
2022-12-05T07:31:52.898Z,347.71
2022-12-05T07:32:48.388Z,346.61
2022-12-05T07:33:44.018Z,363.50
2022-12-05T07:34:39.419Z,370.90
2022-12-05T07:35:34.827Z,369.23
2022-12-05T07:36:31.134Z,365.12
2022-12-05T07:37:26.530Z,367.58
2022-12-05T07:38:21.885Z,357.95
2022-12-05T07:39:16.897Z,348.08
2022-12-05T07:40:11.919Z,342.98
2022-12-05T07:41:12.852Z,332.89
2022-12-05T07:42:03.022Z,324.66
2022-12-05T07:42:57.044Z,350.31
2022-12-05T07:43:52.142Z,366.75
2022-12-05T07:44:47.212Z,381.48
2022-12-05T07:45:43.176Z,386.35
2022-12-05T07:46:38.538Z,391.10
2022-12-05T07:47:34.388Z,370.48
2022-12-05T07:48:29.801Z,372.58
2022-12-05T07:49:25.241Z,370.90
2022-12-05T07:50:20.956Z,362.70
2022-12-05T07:51:16.365Z,369.23
2022-12-05T07:52:12.305Z,371.74
2022-12-05T07:53:07.597Z,380.18
2022-12-05T07:54:03.048Z,390.42
2022-12-05T07:54:58.455Z,391.79
2022-12-05T07:55:53.871Z,396.22
2022-12-05T07:56:50.736Z,400.26
2022-12-05T07:57:46.181Z,404.39
2022-12-05T07:58:41.572Z,404.88
2022-12-05T07:59:37.435Z,404.88
2022-12-05T08:00:32.825Z,408.10
2022-12-05T08:01:28.308Z,406.36
2022-12-05T08:02:23.764Z,405.37
2022-12-05T08:03:18.899Z,410.61
2022-12-05T08:04:15.836Z,411.37
2022-12-05T08:05:08.899Z,418.60
2022-12-05T08:06:03.884Z,415.47
2022-12-05T08:06:58.904Z,415.21
2022-12-05T08:07:58.122Z,421.51
2022-12-05T08:08:53.184Z,421.25
2022-12-05T08:09:48.313Z,419.39
2022-12-05T08:10:43.358Z,422.85
2022-12-05T08:11:38.375Z,418.86
2022-12-05T08:12:33.440Z,418.60
2022-12-05T08:13:28.451Z,403.16
2022-12-05T08:14:23.780Z,398.58
2022-12-05T08:15:19.474Z,395.98
2022-12-05T08:16:15.098Z,402.19
2022-12-05T08:17:10.676Z,402.19
2022-12-05T08:18:06.505Z,403.90
2022-12-05T08:19:02.142Z,399.06
2022-12-05T08:19:58.166Z,387.69
2022-12-05T08:20:53.382Z,385.68
2022-12-05T08:21:48.977Z,388.82
2022-12-05T08:22:44.863Z,390.42
2022-12-05T08:23:40.453Z,392.26
2022-12-05T08:24:35.907Z,395.04
2022-12-05T08:25:32.230Z,380.39
2022-12-05T08:26:27.700Z,377.73
2022-12-05T08:27:23.579Z,384.56
2022-12-05T08:28:19.070Z,394.11
2022-12-05T08:29:14.498Z,394.11
2022-12-05T08:30:10.186Z,391.10
2022-12-05T08:31:05.723Z,397.16
2022-12-05T08:32:01.515Z,392.72
2022-12-05T08:32:56.926Z,392.26
2022-12-05T08:33:57.106Z,394.81
2022-12-05T08:34:49.006Z,393.88
2022-12-05T08:35:43.367Z,394.58
2022-12-05T08:36:38.814Z,397.64
2022-12-05T08:37:35.097Z,402.68
2022-12-05T08:38:30.547Z,407.10
2022-12-05T08:39:26.485Z,412.64
2022-12-05T08:40:21.811Z,412.39
2022-12-05T08:41:17.289Z,415.99
2022-12-05T08:42:13.172Z,423.12
2022-12-05T08:43:09.245Z,430.21
2022-12-05T08:44:04.410Z,431.05
2022-12-05T08:45:00.118Z,439.28
2022-12-05T08:45:55.340Z,441.61
2022-12-05T08:46:50.936Z,443.08
2022-12-05T08:47:46.373Z,447.84
2022-12-05T08:48:41.937Z,450.87
2022-12-05T08:49:38.110Z,446.64
2022-12-05T08:50:33.583Z,436.41
2022-12-05T08:51:29.467Z,436.41
2022-12-05T08:52:24.938Z,436.41
2022-12-05T08:53:20.389Z,432.73
2022-12-05T08:54:16.128Z,434.14
2022-12-05T08:55:11.603Z,431.61
2022-12-05T08:56:07.486Z,427.46
2022-12-05T08:57:02.853Z,426.36
2022-12-05T08:57:58.319Z,426.64
2022-12-05T08:58:55.658Z,427.73
2022-12-05T08:59:49.675Z,429.94
2022-12-05T09:00:44.984Z,420.98
2022-12-05T09:01:41.621Z,423.39
2022-12-05T09:02:37.132Z,412.13
2022-12-05T09:03:32.892Z,390.42
2022-12-05T09:04:28.409Z,380.83
2022-12-05T09:05:28.363Z,354.47
2022-12-05T09:06:20.578Z,339.08
2022-12-05T09:07:15.061Z,355.62
2022-12-05T09:08:11.043Z,372.58
2022-12-05T09:09:06.347Z,383.02
2022-12-05T09:10:01.774Z,383.68
2022-12-05T09:10:57.511Z,389.96
2022-12-05T09:11:52.926Z,393.18
2022-12-05T09:12:48.490Z,397.40
2022-12-05T09:13:44.104Z,393.64
2022-12-05T09:14:39.677Z,377.73
2022-12-05T09:15:35.224Z,352.57
2022-12-05T09:16:36.622Z,341.56
2022-12-05T09:17:27.382Z,345.15
2022-12-05T09:18:21.651Z,355.62
2022-12-05T09:19:17.386Z,363.91
2022-12-05T09:20:12.855Z,372.58
2022-12-05T09:21:08.183Z,378.17
2022-12-05T09:22:03.919Z,388.14
2022-12-05T09:22:59.398Z,393.41
2022-12-05T09:23:54.874Z,399.54
2022-12-05T09:24:51.413Z,407.60
2022-12-05T09:25:46.837Z,414.18
2022-12-05T09:26:42.437Z,418.86
2022-12-05T09:27:37.846Z,419.92
2022-12-05T09:28:33.321Z,423.65
2022-12-05T09:29:29.152Z,423.92
2022-12-05T09:30:24.722Z,424.73
2022-12-05T09:31:20.021Z,419.92
2022-12-05T09:32:15.375Z,419.92
2022-12-05T09:33:10.805Z,408.60
2022-12-05T09:34:05.948Z,405.86
2022-12-05T09:35:01.128Z,403.16
2022-12-05T09:35:55.909Z,406.11
2022-12-05T09:36:50.915Z,410.36
2022-12-05T09:37:45.919Z,413.67
2022-12-05T09:38:40.928Z,418.60
2022-12-05T09:39:36.017Z,420.98
2022-12-05T09:40:31.053Z,423.65
2022-12-05T09:41:26.178Z,424.73
2022-12-05T09:42:23.586Z,428.83
2022-12-05T09:43:18.654Z,418.34
2022-12-05T09:44:13.721Z,410.36
2022-12-05T09:45:08.776Z,403.65
2022-12-05T09:46:03.872Z,403.16
2022-12-05T09:46:58.823Z,404.14
2022-12-05T09:47:53.885Z,404.63
2022-12-05T09:48:48.962Z,404.63
2022-12-05T09:49:43.999Z,409.85
2022-12-05T09:50:39.032Z,412.64
2022-12-05T09:51:35.173Z,413.16
2022-12-05T09:52:30.635Z,408.60
2022-12-05T09:53:26.495Z,411.12
2022-12-05T09:54:21.979Z,410.86
2022-12-05T09:55:17.476Z,411.37
2022-12-05T09:56:13.221Z,410.61
2022-12-05T09:57:08.668Z,412.13
2022-12-05T09:58:04.544Z,410.11
2022-12-05T09:58:59.911Z,406.61
2022-12-05T09:59:55.340Z,406.61
2022-12-05T10:00:51.092Z,405.62
2022-12-05T10:01:46.617Z,402.68
2022-12-05T10:02:41.917Z,396.45
2022-12-05T10:03:38.367Z,381.48
2022-12-05T10:04:33.893Z,373.43
2022-12-05T10:05:29.830Z,363.10
2022-12-05T10:06:25.031Z,350.68
2022-12-05T10:07:20.483Z,346.97
2022-12-05T10:08:16.349Z,348.82
2022-12-05T10:09:11.691Z,345.88
2022-12-05T10:10:07.580Z,348.82
2022-12-05T10:11:02.917Z,349.19
2022-12-05T10:11:58.334Z,348.08
2022-12-05T10:12:54.063Z,347.34
2022-12-05T10:13:49.622Z,348.82
2022-12-05T10:14:44.922Z,355.24
2022-12-05T10:15:45.135Z,359.91
2022-12-05T10:16:37.081Z,352.57
2022-12-05T10:17:32.699Z,342.27
2022-12-05T10:18:28.150Z,343.34
2022-12-05T10:19:23.738Z,336.65
2022-12-05T10:20:19.358Z,331.88
2022-12-05T10:21:14.791Z,334.93
2022-12-05T10:22:10.546Z,335.27
2022-12-05T10:23:05.918Z,339.79
2022-12-05T10:24:01.354Z,330.55
2022-12-05T10:24:57.929Z,319.29
2022-12-05T10:25:53.004Z,324.66
2022-12-05T10:26:48.518Z,328.56
2022-12-05T10:27:44.832Z,328.89
2022-12-05T10:28:40.179Z,332.55
2022-12-05T10:29:36.181Z,333.91
2022-12-05T10:30:31.590Z,330.88
2022-12-05T10:31:27.236Z,327.90
2022-12-05T10:32:22.714Z,322.11
2022-12-05T10:33:18.192Z,317.43
2022-12-05T10:34:13.944Z,315.60
2022-12-05T10:35:09.419Z,317.74
2022-12-05T10:36:04.845Z,324.66
2022-12-05T10:37:00.484Z,329.55
2022-12-05T10:37:55.685Z,327.25
2022-12-05T10:38:50.669Z,321.48
2022-12-05T10:39:50.462Z,320.54
2022-12-05T10:40:45.949Z,324.34
2022-12-05T10:41:41.470Z,324.34
2022-12-05T10:42:37.244Z,324.66
2022-12-05T10:43:32.719Z,320.22
2022-12-05T10:44:28.154Z,318.98
2022-12-05T10:45:24.457Z,314.39
2022-12-05T10:46:19.961Z,312.30
2022-12-05T10:47:15.723Z,308.48
2022-12-05T10:48:11.258Z,309.35
2022-12-05T10:49:06.721Z,307.33
2022-12-05T10:50:02.492Z,306.75
2022-12-05T10:50:57.941Z,308.77
2022-12-05T10:51:53.789Z,303.35
2022-12-05T10:52:49.089Z,307.04
2022-12-05T10:53:44.545Z,308.48
2022-12-05T10:54:40.299Z,314.09
2022-12-05T10:55:35.641Z,312.89
2022-12-05T10:56:31.446Z,308.77
2022-12-05T10:57:26.970Z,308.77
2022-12-05T10:58:22.417Z,312.30
2022-12-05T10:59:18.355Z,319.91
2022-12-05T11:00:13.912Z,324.34
2022-12-05T11:01:09.171Z,322.74
2022-12-05T11:02:04.653Z,324.98
2022-12-05T11:02:59.688Z,323.06
2022-12-05T11:03:54.719Z,335.62
2022-12-05T11:04:49.844Z,339.79
2022-12-05T11:05:44.800Z,342.27
2022-12-05T11:06:39.841Z,337.69
2022-12-05T11:07:35.125Z,332.55
2022-12-05T11:09:02.062Z,319.60
2022-12-05T11:09:26.027Z,305.04
2022-12-05T11:10:24.949Z,303.63
2022-12-05T11:11:16.187Z,297.30
2022-12-05T11:12:10.312Z,302.79
2022-12-05T11:13:05.350Z,304.76
2022-12-05T11:14:00.397Z,313.79
2022-12-05T11:14:55.577Z,324.98
2022-12-05T11:15:55.276Z,326.60
2022-12-05T11:16:47.653Z,322.11
2022-12-05T11:17:41.926Z,315.00
2022-12-05T11:18:37.818Z,305.89
2022-12-05T11:19:33.271Z,305.32
2022-12-05T11:20:29.275Z,303.63
2022-12-05T11:21:24.499Z,280.29
2022-12-05T11:22:20.018Z,280.77
2022-12-05T11:23:16.019Z,290.46
2022-12-05T11:24:11.340Z,306.75
2022-12-05T11:25:06.712Z,327.25
2022-12-05T11:26:02.448Z,340.85
2022-12-05T11:26:58.012Z,323.70
2022-12-05T11:27:55.951Z,329.55
2022-12-05T11:28:50.746Z,330.55
2022-12-05T11:29:45.209Z,330.55
2022-12-05T11:30:41.027Z,340.49
2022-12-05T11:31:36.567Z,355.24